Time;durP1;ratioP1;P1;durP2;ratioP2;P2;SDS_P1;SDS_P2;PMS_P1;PMS_P2;Temp;Humidity;BMP_temperature;BMP_pressure;BME280_temperature;BME280_humidity;BME280_pressure;Samples;Min_cycle;Max_cycle;Signal;HPM_P1;HPM_P2
2022/10/11 00:00:37;;;;;;;;;;;14.30;99.90;;;;;;4957667;28;20503;-74
2022/10/11 00:03:04;;;;;;;;;;;14.30;99.90;;;;;;4961530;28;19973;-74
2022/10/11 00:05:31;;;;;;;;;;;14.30;99.90;;;;;;4958817;28;19981;-74
2022/10/11 00:07:58;;;;;;;;;;;14.30;99.90;;;;;;4961267;28;19934;-74
2022/10/11 00:10:25;;;;;;;;;;;14.20;99.90;;;;;;4958862;28;20400;-74
2022/10/11 00:12:53;;;;;;;;;;;14.20;99.90;;;;;;4954335;28;19934;-74
2022/10/11 00:15:21;;;;;;;;;;;14.20;99.90;;;;;;4959738;28;19969;-74
2022/10/11 00:17:47;;;;;;;;;;;14.20;99.90;;;;;;4960798;28;19940;-74
2022/10/11 00:20:14;;;;;;;;;;;14.20;99.90;;;;;;4964780;28;19932;-74
2022/10/11 00:22:42;;;;;;;;;;;14.30;99.90;;;;;;4962459;28;19941;-73
2022/10/11 00:25:09;;;;;;;;;;;14.20;99.90;;;;;;4960896;28;20405;-75
2022/10/11 00:27:36;;;;;;;;;;;14.20;99.90;;;;;;4955197;28;20599;-74
2022/10/11 00:30:05;;;;;;;;;;;14.20;99.90;;;;;;4967702;28;19985;-74
2022/10/11 00:32:32;;;;;;;;;;;14.20;99.90;;;;;;4961271;28;19932;-75
2022/10/11 00:35:03;;;;;;;;;;;14.20;99.90;;;;;;4959501;28;19930;-74
2022/10/11 00:37:30;;;;;;;;;;;14.20;99.90;;;;;;4964090;28;19930;-75
2022/10/11 00:39:57;;;;;;;;;;;14.10;99.90;;;;;;4959766;28;19962;-75
2022/10/11 00:42:24;;;;;;;;;;;14.10;99.90;;;;;;4956946;28;19926;-75
2022/10/11 00:44:51;;;;;;;;;;;14.10;99.90;;;;;;4960070;28;19973;-74
2022/10/11 00:47:20;;;;;;;;;;;14.10;99.90;;;;;;4967322;28;19926;-74
2022/10/11 00:49:49;;;;;;;;;;;14.10;99.90;;;;;;4958462;28;20293;-75
2022/10/11 00:52:20;;;;;;;;;;;14.10;99.90;;;;;;4962092;28;20340;-75
2022/10/11 00:54:47;;;;;;;;;;;14.10;99.90;;;;;;4963088;28;19927;-75
2022/10/11 00:57:18;;;;;;;;;;;14.10;99.90;;;;;;4957021;28;20130;-75
2022/10/11 00:59:48;;;;;;;;;;;14.10;99.90;;;;;;4956358;28;19953;-75
2022/10/11 01:02:15;;;;;;;;;;;14.10;99.90;;;;;;4958150;28;19933;-75
2022/10/11 01:04:43;;;;;;;;;;;14.10;99.90;;;;;;4958249;28;19930;-75
2022/10/11 01:07:10;;;;;;;;;;;14.10;99.90;;;;;;4958545;28;19957;-74
2022/10/11 01:09:37;;;;;;;;;;;14.10;99.90;;;;;;4981395;28;19926;-74
2022/10/11 01:12:05;;;;;;;;;;;14.10;99.90;;;;;;4962325;28;20029;-74
2022/10/11 01:14:47;;;;;;;;;;;14.10;99.90;;;;;;4957306;28;19934;-74
2022/10/11 01:17:20;;;;;;;;;;;14.10;99.90;;;;;;4958840;28;19985;-75
2022/10/11 01:20:14;;;;;;;;;;;14.10;99.90;;;;;;4970820;28;20366;-75
2022/10/11 01:22:56;;;;;;;;;;;14.10;99.90;;;;;;4936450;28;20024;-74
2022/10/11 01:25:26;;;;;;;;;;;14.00;99.90;;;;;;4954605;28;20277;-74
2022/10/11 01:28:01;;;;;;;;;;;14.00;99.90;;;;;;4959665;28;20021;-75
2022/10/11 01:30:31;;;;;;;;;;;14.00;99.90;;;;;;4956838;28;20017;-74
2022/10/11 01:33:03;;;;;;;;;;;14.00;99.90;;;;;;4964895;28;19926;-74
2022/10/11 01:35:32;;;;;;;;;;;14.00;99.90;;;;;;4956975;28;20364;-75
2022/10/11 01:38:01;;;;;;;;;;;14.00;99.90;;;;;;4963724;28;19933;-74
2022/10/11 01:40:31;;;;;;;;;;;14.00;99.90;;;;;;4955589;28;20025;-74
2022/10/11 01:42:58;;;;;;;;;;;14.00;99.90;;;;;;4953735;28;20577;-75
2022/10/11 01:45:25;;;;;;;;;;;14.00;99.90;;;;;;4953935;28;19969;-75
2022/10/11 01:48:02;;;;;;;;;;;14.00;99.90;;;;;;4960444;28;19934;-74
2022/10/11 01:50:33;;;;;;;;;;;14.00;99.90;;;;;;4957611;28;20365;-75
2022/10/11 01:53:02;;;;;;;;;;;14.00;99.90;;;;;;4958225;28;19934;-75
2022/10/11 01:55:32;;;;;;;;;;;14.00;99.90;;;;;;4961787;28;19965;-75
2022/10/11 01:58:04;;;;;;;;;;;14.00;99.90;;;;;;4959560;28;19973;-75
2022/10/11 02:00:33;;;;;;;;;;;14.00;99.90;;;;;;4957195;28;19965;-75
2022/10/11 02:03:14;;;;;;;;;;;13.90;99.90;;;;;;4960234;28;20618;-75
2022/10/11 02:05:43;;;;;;;;;;;13.90;99.90;;;;;;4957750;28;19992;-74
2022/10/11 02:08:15;;;;;;;;;;;13.90;99.90;;;;;;4955246;28;20015;-75
2022/10/11 02:10:44;;;;;;;;;;;13.90;99.90;;;;;;4955376;28;20017;-75
2022/10/11 02:13:16;;;;;;;;;;;13.90;99.90;;;;;;4959828;28;19937;-75
2022/10/11 02:15:44;;;;;;;;;;;14.00;99.90;;;;;;4958720;28;19968;-75
2022/10/11 02:18:14;;;;;;;;;;;13.90;99.90;;;;;;4956807;28;19938;-74
2022/10/11 02:20:42;;;;;;;;;;;13.90;99.90;;;;;;4961604;28;20021;-74
2022/10/11 02:23:12;;;;;;;;;;;13.90;99.90;;;;;;4956754;28;19926;-74
2022/10/11 02:25:38;;;;;;;;;;;13.90;99.90;;;;;;4957910;28;19926;-74
2022/10/11 02:28:09;;;;;;;;;;;13.90;99.90;;;;;;4950206;28;19926;-75
2022/10/11 02:30:36;;;;;;;;;;;13.90;99.90;;;;;;4973109;28;20005;-74
2022/10/11 02:33:05;;;;;;;;;;;13.90;99.90;;;;;;4955541;28;19934;-74
2022/10/11 02:35:35;;;;;;;;;;;13.90;99.90;;;;;;4952382;28;19934;-74
2022/10/11 02:38:05;;;;;;;;;;;13.80;99.90;;;;;;4958791;28;20429;-74
2022/10/11 02:40:32;;;;;;;;;;;13.80;99.90;;;;;;4960501;28;20392;-74
2022/10/11 02:43:01;;;;;;;;;;;13.80;99.90;;;;;;4955184;28;20459;-75
2022/10/11 02:45:30;;;;;;;;;;;13.80;99.90;;;;;;4954997;28;20018;-75
2022/10/11 02:47:57;;;;;;;;;;;13.80;99.90;;;;;;4961020;28;19926;-74
2022/10/11 02:50:24;;;;;;;;;;;13.80;99.90;;;;;;4962817;28;20045;-75
2022/10/11 02:52:52;;;;;;;;;;;13.80;99.90;;;;;;4955648;28;19950;-74
2022/10/11 02:55:19;;;;;;;;;;;13.80;99.90;;;;;;4957989;28;19925;-75
2022/10/11 02:57:46;;;;;;;;;;;13.80;99.90;;;;;;4958450;28;19969;-74
2022/10/11 03:00:13;;;;;;;;;;;13.70;99.90;;;;;;4953989;28;19937;-75
2022/10/11 03:02:40;;;;;;;;;;;13.70;99.90;;;;;;4952782;28;20570;-73
2022/10/11 03:05:07;;;;;;;;;;;13.70;99.90;;;;;;4958514;28;20719;-73
2022/10/11 03:07:34;;;;;;;;;;;13.80;99.90;;;;;;4898975;28;1778870;-75
2022/10/11 03:10:02;;;;;;;;;;;13.70;99.90;;;;;;4957122;28;19941;-74
2022/10/11 03:12:29;;;;;;;;;;;13.70;99.90;;;;;;4954259;28;21223;-74
2022/10/11 03:14:56;;;;;;;;;;;13.70;99.90;;;;;;4962575;28;19938;-75
2022/10/11 03:17:23;;;;;;;;;;;13.70;99.90;;;;;;4974801;28;19926;-74
2022/10/11 03:19:49;;;;;;;;;;;13.70;99.90;;;;;;4958187;28;20037;-74
2022/10/11 03:22:16;;;;;;;;;;;13.70;99.90;;;;;;4960325;28;20415;-74
2022/10/11 03:24:43;;;;;;;;;;;13.60;99.90;;;;;;4958460;28;20349;-74
2022/10/11 03:27:11;;;;;;;;;;;13.70;99.90;;;;;;4956108;28;19973;-74
2022/10/11 03:29:38;;;;;;;;;;;13.60;99.90;;;;;;4955159;28;20412;-74
2022/10/11 03:32:05;;;;;;;;;;;13.60;99.90;;;;;;4956539;28;20028;-74
2022/10/11 03:34:32;;;;;;;;;;;13.60;99.90;;;;;;4955267;28;19933;-73
2022/10/11 03:36:59;;;;;;;;;;;13.60;99.90;;;;;;4951505;28;20451;-74
2022/10/11 03:39:26;;;;;;;;;;;13.60;99.90;;;;;;4954451;28;20068;-74
2022/10/11 03:41:52;;;;;;;;;;;13.60;99.90;;;;;;4957838;28;20400;-75
2022/10/11 03:44:20;;;;;;;;;;;13.60;99.90;;;;;;4948932;28;20033;-74
2022/10/11 03:46:47;;;;;;;;;;;13.60;99.90;;;;;;4949580;28;19933;-75
2022/10/11 03:49:14;;;;;;;;;;;13.60;99.90;;;;;;4953321;28;19965;-75
2022/10/11 03:51:41;;;;;;;;;;;13.50;99.90;;;;;;4954851;28;19969;-75
2022/10/11 03:54:08;;;;;;;;;;;13.50;99.90;;;;;;4960754;28;19934;-74
2022/10/11 03:56:35;;;;;;;;;;;13.50;99.90;;;;;;4962696;28;19927;-75
2022/10/11 03:59:02;;;;;;;;;;;13.50;99.90;;;;;;4963990;28;20668;-75
2022/10/11 04:01:34;;;;;;;;;;;13.50;99.90;;;;;;4966819;28;20416;-75
2022/10/11 04:04:01;;;;;;;;;;;13.50;99.90;;;;;;4967748;28;20013;-75
2022/10/11 04:06:28;;;;;;;;;;;13.50;99.90;;;;;;4980029;28;19980;-75
2022/10/11 04:08:54;;;;;;;;;;;13.50;99.90;;;;;;4969711;28;19933;-75
2022/10/11 04:11:21;;;;;;;;;;;13.50;99.90;;;;;;4972065;28;19966;-75
2022/10/11 04:13:48;;;;;;;;;;;13.50;99.90;;;;;;4963741;28;20106;-75
2022/10/11 04:16:15;;;;;;;;;;;13.50;99.90;;;;;;4967293;28;19969;-74
2022/10/11 04:18:43;;;;;;;;;;;13.50;99.90;;;;;;4970473;28;19933;-74
2022/10/11 04:21:10;;;;;;;;;;;13.50;99.90;;;;;;4961836;28;19936;-75
2022/10/11 04:23:37;;;;;;;;;;;13.50;99.90;;;;;;4963153;28;19930;-74
2022/10/11 04:26:04;;;;;;;;;;;13.40;99.90;;;;;;4961934;28;19934;-75
2022/10/11 04:28:31;;;;;;;;;;;13.40;99.90;;;;;;4962925;28;19933;-76
2022/10/11 04:30:58;;;;;;;;;;;13.50;99.90;;;;;;4959770;28;19926;-77
2022/10/11 04:33:25;;;;;;;;;;;13.40;99.90;;;;;;4960975;28;19984;-77
2022/10/11 04:35:54;;;;;;;;;;;13.40;99.90;;;;;;4958284;28;20597;-77
2022/10/11 04:38:21;;;;;;;;;;;13.40;99.90;;;;;;4962619;28;19926;-77
2022/10/11 04:40:48;;;;;;;;;;;13.40;99.90;;;;;;4957805;28;19985;-76
2022/10/11 04:43:16;;;;;;;;;;;13.40;99.90;;;;;;4960984;28;20385;-78
2022/10/11 04:45:43;;;;;;;;;;;13.40;99.90;;;;;;4967623;28;19951;-77
2022/10/11 04:48:10;;;;;;;;;;;13.40;99.90;;;;;;4979872;28;19981;-77
2022/10/11 04:50:37;;;;;;;;;;;13.40;99.90;;;;;;4961152;28;19926;-79
2022/10/11 04:53:09;;;;;;;;;;;13.40;99.90;;;;;;4965329;28;19930;-79
2022/10/11 04:55:36;;;;;;;;;;;13.40;99.90;;;;;;4968323;28;19934;-78
2022/10/11 04:58:03;;;;;;;;;;;13.30;99.90;;;;;;4959318;28;19977;-78
2022/10/11 05:00:30;;;;;;;;;;;13.40;99.90;;;;;;4968269;28;20484;-79
2022/10/11 05:02:57;;;;;;;;;;;13.30;99.90;;;;;;4968966;28;19929;-82
2022/10/11 05:05:23;;;;;;;;;;;13.30;99.90;;;;;;4961389;28;20448;-78
2022/10/11 05:07:50;;;;;;;;;;;13.30;99.90;;;;;;4961097;28;19926;-79
2022/10/11 05:10:18;;;;;;;;;;;13.30;99.90;;;;;;4966371;28;19927;-79
2022/10/11 05:12:45;;;;;;;;;;;13.30;99.90;;;;;;4960182;28;19926;-78
2022/10/11 05:15:12;;;;;;;;;;;13.40;99.90;;;;;;4964423;28;19933;-78
2022/10/11 05:17:39;;;;;;;;;;;13.30;99.90;;;;;;4971048;28;20619;-78
2022/10/11 05:20:06;;;;;;;;;;;13.30;99.90;;;;;;4962431;28;19930;-78
2022/10/11 05:22:33;;;;;;;;;;;13.30;99.90;;;;;;4950488;28;19930;-78
2022/10/11 05:25:00;;;;;;;;;;;13.30;99.90;;;;;;4957781;28;19941;-78
2022/10/11 05:27:30;;;;;;;;;;;13.30;99.90;;;;;;4957503;28;19934;-78
2022/10/11 05:29:57;;;;;;;;;;;13.30;99.90;;;;;;4952613;28;20491;-78
2022/10/11 05:32:24;;;;;;;;;;;13.30;99.90;;;;;;4957339;28;19997;-78
2022/10/11 05:34:50;;;;;;;;;;;13.30;99.90;;;;;;4959537;28;19926;-78
2022/10/11 05:37:17;;;;;;;;;;;13.20;99.90;;;;;;4960421;28;19938;-78
2022/10/11 05:39:44;;;;;;;;;;;13.20;99.90;;;;;;4961362;28;20483;-78
2022/10/11 05:42:11;;;;;;;;;;;13.20;99.90;;;;;;4961089;28;20377;-78
2022/10/11 05:44:39;;;;;;;;;;;13.20;99.90;;;;;;4963131;28;20412;-80
2022/10/11 05:47:06;;;;;;;;;;;13.20;99.90;;;;;;4957879;28;19975;-78
2022/10/11 05:49:33;;;;;;;;;;;13.20;99.90;;;;;;4983205;28;19974;-81
2022/10/11 05:52:00;;;;;;;;;;;13.30;99.90;;;;;;4965692;28;20479;-78
2022/10/11 05:54:29;;;;;;;;;;;13.20;99.90;;;;;;4967007;28;19926;-83
2022/10/11 05:56:55;;;;;;;;;;;13.20;99.90;;;;;;4959370;28;20420;-79
2022/10/11 05:59:22;;;;;;;;;;;13.20;99.90;;;;;;4960756;28;19993;-78
2022/10/11 06:01:50;;;;;;;;;;;13.20;99.90;;;;;;4962994;28;20006;-80
2022/10/11 06:04:17;;;;;;;;;;;13.30;99.90;;;;;;4959235;28;19937;-79
2022/10/11 06:06:44;;;;;;;;;;;13.20;99.90;;;;;;4965646;28;19930;-79
2022/10/11 06:09:11;;;;;;;;;;;13.20;99.90;;;;;;4966704;28;19937;-79
2022/10/11 06:11:40;;;;;;;;;;;13.20;99.90;;;;;;4961807;28;19944;-79
2022/10/11 06:14:07;;;;;;;;;;;13.20;99.90;;;;;;4966473;28;19958;-85
2022/10/11 06:16:33;;;;;;;;;;;13.20;99.90;;;;;;4961193;28;19926;-79
2022/10/11 06:19:02;;;;;;;;;;;13.20;99.90;;;;;;4971403;28;19926;-79
2022/10/11 06:21:28;;;;;;;;;;;13.10;99.90;;;;;;4963358;28;19927;-79
2022/10/11 06:23:55;;;;;;;;;;;13.20;99.90;;;;;;4972159;28;20317;-79
2022/10/11 06:26:22;;;;;;;;;;;13.10;99.90;;;;;;4969555;28;19934;-79
2022/10/11 06:28:49;;;;;;;;;;;13.10;99.90;;;;;;4960369;28;19934;-79
2022/10/11 06:31:16;;;;;;;;;;;13.10;99.90;;;;;;4970203;28;19957;-79
2022/10/11 06:33:43;;;;;;;;;;;13.10;99.90;;;;;;4964269;28;19958;-79
2022/10/11 06:36:12;;;;;;;;;;;13.10;99.90;;;;;;4957662;28;20028;-79
2022/10/11 06:38:39;;;;;;;;;;;13.00;99.90;;;;;;4965840;28;19973;-79
2022/10/11 06:41:09;;;;;;;;;;;13.00;99.90;;;;;;4960306;28;19983;-80
2022/10/11 06:43:36;;;;;;;;;;;13.00;99.90;;;;;;4959733;28;19930;-79
2022/10/11 06:46:03;;;;;;;;;;;13.10;99.90;;;;;;4960468;28;19934;-80
2022/10/11 06:48:31;;;;;;;;;;;13.10;99.90;;;;;;4961481;28;19934;-79
2022/10/11 06:50:58;;;;;;;;;;;13.10;99.90;;;;;;4959279;28;19997;-79
2022/10/11 06:53:26;;;;;;;;;;;13.10;99.90;;;;;;4961556;28;19961;-79
2022/10/11 06:55:53;;;;;;;;;;;13.10;99.90;;;;;;4959933;28;20393;-79
2022/10/11 06:58:19;;;;;;;;;;;13.10;99.90;;;;;;4959440;28;20021;-79
2022/10/11 07:00:46;;;;;;;;;;;13.10;99.90;;;;;;4960533;28;19969;-79
2022/10/11 07:03:13;;;;;;;;;;;13.10;99.90;;;;;;4953226;28;20096;-77
2022/10/11 07:05:40;;;;;;;;;;;13.10;99.90;;;;;;4963725;28;20017;-80
2022/10/11 07:08:07;;;;;;;;;;;13.10;99.90;;;;;;4960205;28;19996;-79
2022/10/11 07:10:36;;;;;;;;;;;13.10;99.90;;;;;;4963490;28;19981;-80
2022/10/11 07:13:03;;;;;;;;;;;13.10;99.90;;;;;;4966478;28;19945;-77
2022/10/11 07:15:30;;;;;;;;;;;13.10;99.90;;;;;;4966723;28;20763;-79
2022/10/11 07:17:56;;;;;;;;;;;13.10;99.90;;;;;;4964170;28;20360;-79
2022/10/11 07:20:23;;;;;;;;;;;13.10;99.90;;;;;;4953133;28;20764;-79
2022/10/11 07:22:50;;;;;;;;;;;13.10;99.90;;;;;;4958045;28;20004;-79
2022/10/11 07:25:17;;;;;;;;;;;13.10;99.90;;;;;;4959395;28;19938;-79
2022/10/11 07:27:45;;;;;;;;;;;13.10;99.90;;;;;;4958929;28;19973;-79
2022/10/11 07:30:12;;;;;;;;;;;13.10;99.90;;;;;;4961195;28;19926;-79
2022/10/11 07:32:39;;;;;;;;;;;13.10;99.90;;;;;;4956657;28;19958;-79
2022/10/11 07:35:06;;;;;;;;;;;13.10;99.90;;;;;;4964588;28;20022;-79
2022/10/11 07:37:33;;;;;;;;;;;13.10;99.90;;;;;;4960440;28;19931;-78
2022/10/11 07:40:00;;;;;;;;;;;13.10;99.90;;;;;;4959286;28;19941;-79
2022/10/11 07:42:27;;;;;;;;;;;13.10;99.90;;;;;;4963730;28;19941;-79
2022/10/11 07:44:55;;;;;;;;;;;13.10;99.90;;;;;;4962302;28;19981;-79
2022/10/11 07:47:22;;;;;;;;;;;13.10;99.90;;;;;;4962240;28;19988;-79
2022/10/11 07:49:48;;;;;;;;;;;13.10;99.90;;;;;;4960194;28;19936;-79
2022/10/11 07:52:15;;;;;;;;;;;13.20;99.90;;;;;;4961856;28;20009;-79
2022/10/11 07:54:42;;;;;;;;;;;13.10;99.90;;;;;;4962419;28;19973;-79
2022/10/11 07:57:09;;;;;;;;;;;13.10;99.90;;;;;;4957010;28;20597;-79
2022/10/11 07:59:36;;;;;;;;;;;13.20;99.90;;;;;;4961392;28;20385;-79
2022/10/11 08:02:04;;;;;;;;;;;13.20;99.90;;;;;;4955236;28;20405;-79
2022/10/11 08:04:30;;;;;;;;;;;13.20;99.90;;;;;;4960567;28;20019;-79
2022/10/11 08:06:57;;;;;;;;;;;13.20;99.90;;;;;;4964814;28;19926;-79
2022/10/11 08:09:24;;;;;;;;;;;13.20;99.90;;;;;;4963416;28;20002;-79
2022/10/11 08:11:51;;;;;;;;;;;13.20;99.90;;;;;;4957594;28;20282;-79
2022/10/11 08:14:18;;;;;;;;;;;13.20;99.90;;;;;;4962394;28;19930;-79
2022/10/11 08:16:45;;;;;;;;;;;13.20;99.90;;;;;;4963723;28;19934;-79
2022/10/11 08:19:13;;;;;;;;;;;13.20;99.90;;;;;;4958531;28;19926;-79
2022/10/11 08:21:40;;;;;;;;;;;13.20;99.90;;;;;;4961646;28;20364;-79
2022/10/11 08:24:07;;;;;;;;;;;13.20;99.90;;;;;;4964722;28;19973;-79
2022/10/11 08:26:34;;;;;;;;;;;13.20;99.90;;;;;;4960340;28;19926;-79
2022/10/11 08:29:02;;;;;;;;;;;13.30;99.90;;;;;;4966242;28;19965;-79
2022/10/11 08:31:29;;;;;;;;;;;13.30;99.90;;;;;;4978143;28;19930;-78
2022/10/11 08:33:55;;;;;;;;;;;13.30;99.90;;;;;;4964340;28;19926;-79
2022/10/11 08:36:24;;;;;;;;;;;13.30;99.90;;;;;;4966272;28;19930;-79
2022/10/11 08:38:50;;;;;;;;;;;13.30;99.90;;;;;;4959488;28;20008;-79
2022/10/11 08:41:23;;;;;;;;;;;13.30;99.90;;;;;;4962905;28;19926;-79
2022/10/11 08:43:55;;;;;;;;;;;13.30;99.90;;;;;;4964344;28;19926;-78
2022/10/11 08:46:24;;;;;;;;;;;13.30;99.90;;;;;;4958515;28;20343;-78
2022/10/11 08:48:51;;;;;;;;;;;13.30;99.90;;;;;;4960594;28;20533;-79
2022/10/11 08:51:19;;;;;;;;;;;13.30;99.90;;;;;;4960395;28;20427;-79
2022/10/11 08:53:51;;;;;;;;;;;13.40;99.90;;;;;;4958035;28;20315;-79
2022/10/11 08:56:18;;;;;;;;;;;13.30;99.90;;;;;;4968773;28;20384;-78
2022/10/11 08:58:47;;;;;;;;;;;13.40;99.90;;;;;;4965467;28;19933;-79
2022/10/11 09:01:16;;;;;;;;;;;13.40;99.90;;;;;;4953953;28;20451;-77
2022/10/11 09:03:43;;;;;;;;;;;13.40;99.90;;;;;;4961305;28;19977;-79
2022/10/11 09:06:17;;;;;;;;;;;13.40;99.90;;;;;;4966105;28;19941;-78
2022/10/11 09:08:53;;;;;;;;;;;13.40;99.90;;;;;;4960964;28;19931;-79
2022/10/11 09:11:23;;;;;;;;;;;13.50;99.90;;;;;;4969387;28;19934;-77
2022/10/11 09:13:59;;;;;;;;;;;13.40;99.90;;;;;;4962604;28;19994;-77
2022/10/11 09:16:30;;;;;;;;;;;13.40;99.90;;;;;;4959549;28;20008;-78
2022/10/11 09:19:05;;;;;;;;;;;13.50;99.90;;;;;;4964908;28;20013;-77
2022/10/11 09:21:35;;;;;;;;;;;13.40;99.90;;;;;;4962095;28;20029;-78
2022/10/11 09:24:13;;;;;;;;;;;13.50;99.90;;;;;;4968890;28;20459;-78
2022/10/11 09:26:42;;;;;;;;;;;13.50;99.90;;;;;;4962676;28;19930;-79
2022/10/11 09:29:15;;;;;;;;;;;13.50;99.90;;;;;;4961856;28;20416;-78
2022/10/11 09:31:46;;;;;;;;;;;13.50;99.90;;;;;;4964012;28;19927;-76
2022/10/11 09:34:14;;;;;;;;;;;13.50;99.90;;;;;;4958020;28;19938;-76
2022/10/11 09:36:44;;;;;;;;;;;13.50;99.90;;;;;;4960668;28;19931;-76
2022/10/11 09:39:18;;;;;;;;;;;13.50;99.90;;;;;;4958745;28;19926;-76
2022/10/11 09:41:47;;;;;;;;;;;13.50;99.90;;;;;;4962641;28;19931;-76
2022/10/11 09:44:19;;;;;;;;;;;13.60;99.90;;;;;;4962691;28;19990;-76
2022/10/11 09:46:47;;;;;;;;;;;13.60;99.90;;;;;;4958514;28;20445;-77
2022/10/11 09:49:15;;;;;;;;;;;13.60;99.90;;;;;;4956902;28;20090;-77
2022/10/11 09:51:44;;;;;;;;;;;13.60;99.90;;;;;;4968551;28;19926;-77
2022/10/11 09:54:11;;;;;;;;;;;13.60;99.90;;;;;;4956303;28;19944;-77
2022/10/11 09:56:43;;;;;;;;;;;13.60;99.90;;;;;;4963233;28;19937;-77
2022/10/11 09:59:18;;;;;;;;;;;13.60;99.90;;;;;;4963904;28;19980;-77
2022/10/11 10:01:45;;;;;;;;;;;13.60;99.90;;;;;;4966820;28;20073;-77
2022/10/11 10:04:13;;;;;;;;;;;13.60;99.90;;;;;;4969433;28;19926;-76
2022/10/11 10:06:40;;;;;;;;;;;13.70;99.90;;;;;;4966636;28;19989;-76
2022/10/11 10:09:26;;;;;;;;;;;13.70;99.90;;;;;;4965487;28;20021;-77
2022/10/11 10:11:54;;;;;;;;;;;13.70;99.90;;;;;;4960569;28;19957;-76
2022/10/11 10:14:22;;;;;;;;;;;13.70;99.90;;;;;;4961302;28;19926;-77
2022/10/11 10:16:57;;;;;;;;;;;13.70;99.90;;;;;;4960303;28;19973;-76
2022/10/11 10:19:25;;;;;;;;;;;13.70;99.90;;;;;;4955713;28;20366;-77
2022/10/11 10:21:53;;;;;;;;;;;13.80;99.90;;;;;;4960455;28;19927;-76
2022/10/11 10:24:21;;;;;;;;;;;13.80;99.90;;;;;;4958491;28;20208;-76
2022/10/11 10:27:17;;;;;;;;;;;13.80;99.90;;;;;;4959603;28;20036;-77
2022/10/11 10:29:58;;;;;;;;;;;13.80;99.90;;;;;;4957158;28;19987;-77
2022/10/11 10:32:27;;;;;;;;;;;13.80;99.90;;;;;;4967258;28;19926;-76
2022/10/11 10:34:57;;;;;;;;;;;13.80;99.90;;;;;;4961963;28;19934;-76
2022/10/11 10:37:26;;;;;;;;;;;13.80;99.90;;;;;;4959527;28;20467;-75
2022/10/11 10:39:57;;;;;;;;;;;13.90;99.90;;;;;;4933674;28;19933;-77
2022/10/11 10:42:25;;;;;;;;;;;13.90;99.90;;;;;;4960914;28;19984;-77
2022/10/11 10:44:55;;;;;;;;;;;13.90;99.90;;;;;;4958507;28;20431;-77
2022/10/11 10:47:30;;;;;;;;;;;13.90;99.90;;;;;;4951262;28;19941;-76
2022/10/11 10:50:03;;;;;;;;;;;13.90;99.90;;;;;;4953281;28;19969;-76
2022/10/11 10:52:40;;;;;;;;;;;13.90;99.90;;;;;;4964085;28;19933;-77
2022/10/11 10:55:12;;;;;;;;;;;13.90;99.90;;;;;;4959718;28;20025;-76
2022/10/11 10:57:45;;;;;;;;;;;14.00;99.90;;;;;;4952952;28;19926;-77
2022/10/11 11:00:13;;;;;;;;;;;14.00;99.90;;;;;;4960107;28;20017;-77
2022/10/11 11:02:44;;;;;;;;;;;14.00;99.90;;;;;;4952992;28;20294;-77
2022/10/11 11:05:17;;;;;;;;;;;14.00;99.90;;;;;;4953891;28;22624;-77
2022/10/11 11:07:47;;;;;;;;;;;14.00;99.90;;;;;;4957935;28;19930;-77
2022/10/11 11:10:18;;;;;;;;;;;14.00;99.90;;;;;;4958490;28;19926;-75
2022/10/11 11:12:48;;;;;;;;;;;14.00;99.90;;;;;;4960360;28;20046;-77
2022/10/11 11:15:18;;;;;;;;;;;14.00;99.90;;;;;;4954133;28;20043;-77
2022/10/11 11:17:51;;;;;;;;;;;14.00;99.90;;;;;;4954671;28;19973;-76
2022/10/11 11:20:26;;;;;;;;;;;14.10;99.90;;;;;;4947757;28;19954;-76
2022/10/11 11:22:59;;;;;;;;;;;14.10;99.90;;;;;;4957390;28;20001;-76
2022/10/11 11:25:30;;;;;;;;;;;14.10;99.90;;;;;;4956138;28;19927;-77
2022/10/11 11:28:05;;;;;;;;;;;14.10;99.90;;;;;;4953208;28;21645;-77
2022/10/11 11:30:36;;;;;;;;;;;14.10;99.90;;;;;;4954444;28;20028;-76
2022/10/11 11:33:10;;;;;;;;;;;14.10;99.90;;;;;;4966053;28;20033;-77
2022/10/11 11:35:37;;;;;;;;;;;14.20;99.90;;;;;;4956609;28;19981;-77
2022/10/11 11:38:10;;;;;;;;;;;14.20;99.90;;;;;;4959948;28;19930;-77
2022/10/11 11:40:39;;;;;;;;;;;14.20;99.90;;;;;;4952697;28;20468;-77
2022/10/11 11:43:12;;;;;;;;;;;14.20;99.90;;;;;;4953157;28;19926;-76
2022/10/11 11:45:43;;;;;;;;;;;14.20;99.90;;;;;;4960826;28;19926;-77
2022/10/11 11:48:13;;;;;;;;;;;14.20;99.90;;;;;;4963030;28;20356;-76
2022/10/11 11:50:43;;;;;;;;;;;14.20;99.90;;;;;;4952605;28;19926;-77
2022/10/11 11:53:14;;;;;;;;;;;14.30;99.90;;;;;;4962137;28;19926;-77
2022/10/11 11:55:47;;;;;;;;;;;14.30;99.90;;;;;;4965202;28;19926;-77
2022/10/11 11:58:23;;;;;;;;;;;14.30;99.90;;;;;;4952256;28;19942;-77
2022/10/11 12:00:54;;;;;;;;;;;14.30;99.90;;;;;;4961962;28;19934;-76
2022/10/11 12:03:23;;;;;;;;;;;14.30;99.90;;;;;;4963237;28;20392;-77
2022/10/11 12:06:05;;;;;;;;;;;14.30;99.90;;;;;;4960356;28;20449;-77
2022/10/11 12:08:33;;;;;;;;;;;14.30;99.90;;;;;;4959495;28;19961;-77
2022/10/11 12:11:02;;;;;;;;;;;14.40;99.90;;;;;;4960982;28;19933;-77
2022/10/11 12:13:34;;;;;;;;;;;14.40;99.90;;;;;;4968221;28;20001;-76
2022/10/11 12:16:09;;;;;;;;;;;14.30;99.90;;;;;;4967465;28;19992;-76
2022/10/11 12:18:46;;;;;;;;;;;14.40;99.90;;;;;;4983539;28;19934;-77
2022/10/11 12:21:18;;;;;;;;;;;14.40;99.90;;;;;;4963575;28;19930;-76
2022/10/11 12:23:46;;;;;;;;;;;14.40;99.90;;;;;;4961285;28;19930;-77
2022/10/11 12:26:31;;;;;;;;;;;14.50;99.90;;;;;;4967074;28;19933;-81
2022/10/11 12:29:02;;;;;;;;;;;14.50;99.90;;;;;;4967935;28;20804;-75
2022/10/11 12:31:30;;;;;;;;;;;14.50;99.90;;;;;;4966461;28;19935;-75
2022/10/11 12:34:16;;;;;;;;;;;14.50;99.90;;;;;;4961535;28;19926;-75
2022/10/11 12:36:44;;;;;;;;;;;14.50;99.90;;;;;;4962633;28;20013;-76
2022/10/11 12:39:29;;;;;;;;;;;14.50;99.90;;;;;;4964235;28;20016;-75
2022/10/11 12:42:06;;;;;;;;;;;14.50;99.90;;;;;;4958339;28;19930;-76
2022/10/11 12:44:34;;;;;;;;;;;14.60;99.90;;;;;;4972893;28;19957;-75
2022/10/11 12:47:17;;;;;;;;;;;14.60;99.90;;;;;;4962237;28;20053;-78
2022/10/11 12:49:49;;;;;;;;;;;14.60;99.90;;;;;;4962547;28;19970;-76
2022/10/11 12:52:23;;;;;;;;;;;14.60;99.90;;;;;;4966062;28;20391;-76
2022/10/11 12:54:58;;;;;;;;;;;14.60;99.90;;;;;;4957382;28;20058;-76
2022/10/11 12:57:43;;;;;;;;;;;14.60;99.90;;;;;;4959381;28;19929;-76
2022/10/11 13:00:20;;;;;;;;;;;14.60;99.90;;;;;;4981746;28;20351;-77
2022/10/11 13:02:48;;;;;;;;;;;14.70;99.90;;;;;;4967692;28;20016;-77
2022/10/11 13:05:21;;;;;;;;;;;14.70;99.90;;;;;;4981793;28;20372;-77
2022/10/11 13:07:49;;;;;;;;;;;14.70;99.90;;;;;;4964351;28;19933;-77
2022/10/11 13:10:16;;;;;;;;;;;14.70;99.90;;;;;;4975812;28;19926;-77
2022/10/11 13:12:45;;;;;;;;;;;14.70;99.90;;;;;;4969858;28;19985;-77
2022/10/11 13:15:14;;;;;;;;;;;14.70;99.90;;;;;;4960473;28;19930;-77
2022/10/11 13:17:42;;;;;;;;;;;14.70;99.90;;;;;;4959011;28;20525;-76
2022/10/11 13:20:15;;;;;;;;;;;14.70;99.90;;;;;;4960715;28;19933;-77
2022/10/11 13:22:42;;;;;;;;;;;14.70;99.90;;;;;;4960632;28;19941;-76
2022/10/11 13:25:14;;;;;;;;;;;14.70;99.90;;;;;;4964071;28;19932;-77
2022/10/11 13:27:41;;;;;;;;;;;14.80;99.90;;;;;;4960571;28;20061;-77
2022/10/11 13:30:12;;;;;;;;;;;14.80;99.90;;;;;;4956910;28;19985;-77
2022/10/11 13:32:39;;;;;;;;;;;14.80;99.90;;;;;;4963101;28;19973;-76
2022/10/11 13:35:14;;;;;;;;;;;14.80;99.90;;;;;;4958413;28;19934;-74
2022/10/11 13:37:44;;;;;;;;;;;14.80;99.90;;;;;;4959688;28;19933;-74
2022/10/11 13:40:12;;;;;;;;;;;14.80;99.90;;;;;;4960130;28;19940;-74
2022/10/11 13:42:39;;;;;;;;;;;14.80;99.90;;;;;;4962140;28;20033;-74
2022/10/11 13:45:09;;;;;;;;;;;14.80;99.90;;;;;;4954060;28;20406;-75
2022/10/11 13:47:36;;;;;;;;;;;14.90;99.90;;;;;;4961681;28;19958;-74
2022/10/11 13:50:09;;;;;;;;;;;14.90;99.90;;;;;;4966858;28;19934;-74
2022/10/11 13:52:47;;;;;;;;;;;14.90;99.90;;;;;;4965464;28;19930;-74
2022/10/11 13:55:22;;;;;;;;;;;14.90;99.90;;;;;;4959156;28;19961;-74
2022/10/11 13:57:50;;;;;;;;;;;14.90;99.90;;;;;;4959571;28;19926;-74
2022/10/11 14:00:25;;;;;;;;;;;14.90;99.90;;;;;;4954315;28;19981;-74
2022/10/11 14:02:55;;;;;;;;;;;14.90;99.90;;;;;;4955618;28;20356;-74
2022/10/11 14:05:23;;;;;;;;;;;15.00;99.90;;;;;;4952919;28;19934;-76
2022/10/11 14:07:51;;;;;;;;;;;14.90;99.90;;;;;;4959058;28;22130;-74
2022/10/11 14:10:19;;;;;;;;;;;15.00;99.90;;;;;;4957237;28;19934;-74
2022/10/11 14:12:57;;;;;;;;;;;15.00;99.90;;;;;;4955189;28;19937;-74
2022/10/11 14:15:29;;;;;;;;;;;15.00;99.90;;;;;;4951698;28;19932;-74
2022/10/11 14:17:57;;;;;;;;;;;15.00;99.90;;;;;;4962050;28;20343;-75
2022/10/11 14:20:25;;;;;;;;;;;15.00;99.90;;;;;;4960230;28;19933;-74
2022/10/11 14:22:53;;;;;;;;;;;15.00;99.90;;;;;;4952128;28;20012;-74
2022/10/11 14:25:21;;;;;;;;;;;15.00;99.90;;;;;;4960136;28;19930;-74
2022/10/11 14:27:48;;;;;;;;;;;15.00;99.90;;;;;;4958502;28;20028;-74